KCVN

Clovis Municipal Airport

Clovis, New Mexico, USA
METAR KCVN 172356Z AUTO 07006KT 10SM OVC038 11/03 A3044 RMK AO2 SLP307 60000 T01060033 10133 20106 51002
Observed Flight Rules
Oct-17 @ 23:56 UTC (48 minutes ago) Visual Flight Rules
Wind Visibility Clouds
70° at 6 knots 10 miles
  • Overcast at 3,800' AGL
Temperatures Readings
Current 11°C / 52°F
Dewpoint 3°C / 37°F
Humidity 58%
Altimeter 30.44" Hg
Pressure 1030.7 hPa
Elevation 1284
METAR KCVN 172356Z AUTO 07006KT 10SM OVC038 11/03 A3044 RMK AO2 SLP307 60000 T01060033 10133 20106 51002
Observed Flight Rules
Oct-17 @ 23:56 UTC
(48 minutes ago)
VFR
Wind Visibility
70° at 6 knots 10 miles
Clouds
  • Overcast at 3,800' AGL
Temperature Dewpoint
11°C / 52°F 3°C / 37°F
Humidity Altimeter Pressure
58% 30.44" Hg 1030.7 hPa